Time;durP1;ratioP1;P1;durP2;ratioP2;P2;SDS_P1;SDS_P2;PMS_P1;PMS_P2;Temp;Humidity;BMP_temperature;BMP_pressure;BME280_temperature;BME280_humidity;BME280_pressure;Samples;Min_cycle;Max_cycle;Signal;HPM_P1;HPM_P2
2023/05/30 00:01:33;;;;;;;13.52;2.53;;;;;;;15.40;60.51;101412.38;8303052;28;20467;-58
2023/05/30 00:05:34;;;;;;;12.52;2.45;;;;;;;15.28;60.95;101402.63;8275501;28;20038;-58
2023/05/30 00:09:34;;;;;;;10.63;2.67;;;;;;;15.19;61.24;101400.78;8268197;28;20038;-58
2023/05/30 00:13:35;;;;;;;15.90;2.30;;;;;;;15.11;60.72;101399.84;8277962;28;20471;-59
2023/05/30 00:17:35;;;;;;;10.50;2.10;;;;;;;15.04;60.65;101412.34;8275380;28;20057;-58
2023/05/30 00:21:36;;;;;;;11.73;2.47;;;;;;;15.05;60.53;101414.03;8287832;28;20164;-58
2023/05/30 00:25:37;;;;;;;14.05;2.40;;;;;;;15.01;60.71;101410.75;8287647;28;20046;-59
2023/05/30 00:29:37;;;;;;;14.32;2.63;;;;;;;14.96;60.90;101413.06;8291278;28;20065;-58
2023/05/30 00:33:38;;;;;;;7.63;2.17;;;;;;;14.86;60.60;101414.09;8290773;28;20038;-59
2023/05/30 00:37:38;;;;;;;13.95;2.53;;;;;;;14.80;60.68;101418.25;8290280;28;20331;-59
2023/05/30 00:41:38;;;;;;;14.50;2.53;;;;;;;14.72;60.65;101415.41;8292983;28;20041;-59
2023/05/30 00:45:39;;;;;;;12.70;2.63;;;;;;;14.67;60.11;101420.41;8293464;28;20050;-59
2023/05/30 00:49:40;;;;;;;14.27;2.33;;;;;;;14.59;60.08;101411.25;8291645;28;20033;-59
2023/05/30 00:53:41;;;;;;;10.60;2.33;;;;;;;14.61;59.30;101423.72;8292551;28;20045;-59
2023/05/30 00:57:43;;;;;;;10.15;2.25;;;;;;;14.52;59.01;101423.72;8292580;28;20038;-60
2023/05/30 01:01:43;;;;;;;13.65;1.92;;;;;;;14.49;58.53;101411.25;8290457;28;20046;-59
2023/05/30 01:05:44;;;;;;;9.82;2.15;;;;;;;14.48;57.91;101423.16;8292177;28;20040;-59
2023/05/30 01:09:45;;;;;;;7.03;1.88;;;;;;;14.38;58.34;101416.84;8292211;28;20042;-59
2023/05/30 01:13:58;;;;;;;7.68;2.15;;;;;;;14.29;58.33;101417.72;8290747;28;20165;-59
2023/05/30 01:18:09;;;;;;;11.02;2.05;;;;;;;14.25;58.41;101405.41;8288514;28;20049;-59
2023/05/30 01:22:21;;;;;;;9.68;2.25;;;;;;;14.15;58.62;101415.34;8293449;28;20056;-59
2023/05/30 01:26:49;;;;;;;11.80;2.25;;;;;;;14.08;59.16;101414.22;8258636;28;20030;-59
2023/05/30 01:30:52;;;;;;;9.15;2.20;;;;;;;13.86;59.52;101414.47;8290463;28;20456;-59
2023/05/30 01:34:53;;;;;;;7.18;2.33;;;;;;;13.87;59.83;101405.31;8290489;28;20060;-59
2023/05/30 01:38:54;;;;;;;9.70;2.20;;;;;;;13.72;60.46;101406.69;8291097;28;20046;-59
2023/05/30 01:42:59;;;;;;;10.07;2.33;;;;;;;13.61;60.62;101414.97;8291020;28;20045;-58
2023/05/30 01:47:12;;;;;;;10.20;2.05;;;;;;;13.63;60.36;101412.97;8290668;28;20045;-59
2023/05/30 01:51:19;;;;;;;6.45;2.25;;;;;;;13.60;60.85;101407.81;8291085;28;20477;-59
2023/05/30 01:55:24;;;;;;;8.65;2.42;;;;;;;13.58;61.19;101398.94;8289214;28;20121;-59
2023/05/30 01:59:26;;;;;;;9.48;2.55;;;;;;;13.51;61.37;101398.63;8289832;28;20050;-58
2023/05/30 02:03:28;;;;;;;13.50;2.28;;;;;;;13.49;61.27;101395.22;8290227;28;20060;-59
2023/05/30 02:07:29;;;;;;;7.40;1.95;;;;;;;13.51;61.11;101397.78;8290569;28;20052;-59
2023/05/30 02:11:30;;;;;;;9.18;2.08;;;;;;;13.44;61.52;101407.47;8289925;28;20046;-59
2023/05/30 02:15:30;;;;;;;15.85;3.13;;;;;;;13.41;61.82;101418.59;8289932;28;20044;-59
2023/05/30 02:19:31;;;;;;;9.90;2.55;;;;;;;13.31;61.77;101426.72;8287860;28;20038;-58
2023/05/30 02:23:31;;;;;;;13.70;2.10;;;;;;;13.21;62.37;101441.25;8291526;28;20564;-62
2023/05/30 02:27:32;;;;;;;9.85;2.35;;;;;;;13.31;62.30;101434.00;8290031;28;20104;-62
2023/05/30 02:31:32;;;;;;;12.18;1.88;;;;;;;13.31;63.22;101423.16;8289786;28;20484;-62
2023/05/30 02:35:33;;;;;;;12.30;2.55;;;;;;;13.20;63.11;101428.66;8289346;28;20045;-62
2023/05/30 02:39:33;;;;;;;9.80;2.00;;;;;;;13.16;63.91;101429.94;8288399;28;20313;-62
2023/05/30 02:43:34;;;;;;;14.80;2.03;;;;;;;13.07;64.46;101431.59;8286832;28;20081;-60
2023/05/30 02:47:34;;;;;;;10.25;2.47;;;;;;;12.88;65.16;101446.88;8288981;28;20041;-59
2023/05/30 02:51:36;;;;;;;13.75;2.22;;;;;;;12.93;65.72;101444.63;8290328;28;20058;-60
2023/05/30 02:55:42;;;;;;;13.57;2.15;;;;;;;12.93;65.91;101455.50;8289110;28;20036;-59
2023/05/30 03:00:00;;;;;;;10.82;2.35;;;;;;;12.79;66.62;101453.09;8288643;28;20084;-59
2023/05/30 03:04:01;;;;;;;9.77;2.42;;;;;;;12.75;67.19;101451.66;8288503;28;20073;-59
2023/05/30 03:08:07;;;;;;;13.18;2.65;;;;;;;12.72;67.01;101451.91;8287648;28;20165;-59
2023/05/30 03:12:07;;;;;;;15.05;2.40;;;;;;;12.73;67.75;101453.63;8286902;28;20049;-60
2023/05/30 03:16:08;;;;;;;11.07;2.25;;;;;;;12.68;68.26;101458.56;8288709;28;20045;-60
2023/05/30 03:20:09;;;;;;;15.32;2.75;;;;;;;12.66;68.96;101468.72;8287430;28;20140;-60
2023/05/30 03:24:12;;;;;;;13.90;2.60;;;;;;;12.71;69.11;101471.88;8289301;28;20045;-60
2023/05/30 03:28:16;;;;;;;13.98;2.95;;;;;;;12.67;69.52;101475.84;8287815;28;20037;-60
2023/05/30 03:32:36;;;;;;;14.65;3.30;;;;;;;12.65;70.13;101473.25;8286369;28;20045;-60
2023/05/30 03:36:38;;;;;;;15.30;2.53;;;;;;;12.53;71.08;101478.88;8287284;28;20037;-59
2023/05/30 03:40:39;;;;;;;11.98;2.22;;;;;;;12.58;71.40;101476.63;8287778;28;20105;-60
2023/05/30 03:44:39;;;;;;;16.98;2.53;;;;;;;12.64;72.63;101470.69;8286421;28;20497;-59
2023/05/30 03:48:40;;;;;;;13.65;2.33;;;;;;;12.46;72.83;101477.66;8287684;28;20037;-60
2023/05/30 03:52:41;;;;;;;14.02;2.70;;;;;;;12.28;74.10;101484.63;8289739;28;20038;-60
2023/05/30 03:56:41;;;;;;;16.85;2.90;;;;;;;12.22;74.41;101474.28;8287484;28;20037;-60
2023/05/30 04:00:43;;;;;;;15.02;2.63;;;;;;;12.25;75.06;101484.88;8285387;28;20091;-60
2023/05/30 04:04:43;;;;;;;15.85;2.88;;;;;;;12.39;74.79;101481.88;8291160;28;20393;-60
2023/05/30 04:08:44;;;;;;;19.27;3.10;;;;;;;12.39;74.50;101490.03;8292208;28;20041;-60
2023/05/30 04:12:44;;;;;;;12.32;2.97;;;;;;;12.43;75.10;101488.75;8286137;28;20045;-61
2023/05/30 04:16:45;;;;;;;19.50;3.08;;;;;;;12.48;75.16;101486.53;8295507;28;20117;-61
2023/05/30 04:20:46;;;;;;;15.05;2.97;;;;;;;12.51;75.77;101498.00;8299550;28;20045;-62
2023/05/30 04:24:46;;;;;;;15.63;2.85;;;;;;;12.54;74.96;101496.88;8313283;28;20049;-62
2023/05/30 04:28:47;;;;;;;20.90;4.28;;;;;;;12.56;75.42;101501.16;8296098;28;20037;-62
2023/05/30 04:32:48;;;;;;;16.80;3.15;;;;;;;12.53;75.60;101495.16;8286429;28;20164;-61
2023/05/30 04:36:52;;;;;;;22.27;3.75;;;;;;;12.50;75.99;101495.41;8260753;28;20461;-61
2023/05/30 04:40:52;;;;;;;19.70;3.45;;;;;;;12.64;75.93;101498.69;8288505;28;20044;-61
2023/05/30 04:44:54;;;;;;;17.60;3.10;;;;;;;12.72;76.05;101500.75;8296668;28;20045;-62
2023/05/30 04:48:58;;;;;;;14.02;3.33;;;;;;;12.84;75.85;101499.69;8292091;28;20041;-62
2023/05/30 04:52:59;;;;;;;14.82;3.28;;;;;;;12.77;76.11;101493.06;8295115;28;20042;-62
2023/05/30 04:57:00;;;;;;;16.65;3.70;;;;;;;12.89;75.61;101503.75;8286903;28;20136;-62
2023/05/30 05:01:00;;;;;;;18.15;3.95;;;;;;;13.08;75.78;101516.59;8274879;28;20504;-62
2023/05/30 05:05:01;;;;;;;14.85;3.83;;;;;;;13.28;74.75;101510.31;8285313;28;20034;-61
2023/05/30 05:09:01;;;;;;;16.48;3.63;;;;;;;13.31;74.70;101510.06;8285006;28;20215;-61
2023/05/30 05:13:02;;;;;;;20.63;4.28;;;;;;;13.34;75.01;101510.66;8288893;28;20050;-61
2023/05/30 05:17:02;;;;;;;17.00;4.15;;;;;;;13.30;74.92;101516.50;8288207;28;20262;-61
2023/05/30 05:21:03;;;;;;;21.88;4.57;;;;;;;13.42;74.92;101512.72;8290347;28;20140;-62
2023/05/30 05:25:04;;;;;;;19.45;4.65;;;;;;;13.62;74.49;101514.50;8296320;28;20117;-62
2023/05/30 05:29:05;;;;;;;29.17;4.53;;;;;;;13.48;75.24;101517.59;8283658;28;20473;-61
2023/05/30 05:33:05;;;;;;;17.55;5.15;;;;;;;13.38;75.13;101517.53;8288925;28;20046;-62
2023/05/30 05:37:06;;;;;;;29.63;5.97;;;;;;;13.38;75.70;101517.53;8288058;28;20041;-61
2023/05/30 05:41:06;;;;;;;25.83;5.65;;;;;;;13.55;75.61;101518.78;8288643;28;20137;-61
2023/05/30 05:45:07;;;;;;;20.33;5.45;;;;;;;13.67;74.81;101517.69;8280958;28;20068;-62
2023/05/30 05:49:08;;;;;;;17.80;5.85;;;;;;;13.90;73.75;101508.34;8259100;28;20050;-61
2023/05/30 05:53:08;;;;;;;26.75;6.20;;;;;;;13.89;73.75;101517.50;8301651;28;20045;-62
2023/05/30 05:57:09;;;;;;;18.38;6.38;;;;;;;14.11;73.94;101521.84;8323695;28;20041;-62
2023/05/30 06:01:10;;;;;;;26.02;6.78;;;;;;;14.09;72.67;101530.13;8290407;28;20052;-62
2023/05/30 06:05:11;;;;;;;25.63;6.57;;;;;;;14.49;72.47;101533.69;8269427;28;20042;-62
2023/05/30 06:09:11;;;;;;;23.02;6.63;;;;;;;14.61;71.77;101529.84;8267456;28;20044;-61
2023/05/30 06:13:12;;;;;;;23.55;6.13;;;;;;;14.76;71.47;101533.88;8289785;28;20042;-62
2023/05/30 06:17:12;;;;;;;27.48;6.97;;;;;;;14.78;70.59;101529.16;8289942;28;20045;-61
2023/05/30 06:21:13;;;;;;;22.35;5.72;;;;;;;14.83;70.76;101526.88;8310553;28;20041;-61
2023/05/30 06:25:13;;;;;;;28.83;5.88;;;;;;;14.97;70.73;101534.59;8315603;28;20042;-61
2023/05/30 06:29:14;;;;;;;16.63;5.30;;;;;;;15.32;69.25;101540.31;8321884;28;20525;-61
2023/05/30 06:33:14;;;;;;;19.17;5.85;;;;;;;15.04;68.84;101535.72;8322394;28;20052;-61
2023/05/30 06:37:15;;;;;;;18.08;5.60;;;;;;;15.33;68.54;101543.88;8312649;28;20516;-61
2023/05/30 06:41:15;;;;;;;17.00;5.15;;;;;;;15.32;68.74;101545.75;8286999;28;20475;-61
2023/05/30 06:45:16;;;;;;;16.05;5.15;;;;;;;15.58;66.82;101551.44;8283756;28;20074;-61
2023/05/30 06:49:16;;;;;;;20.88;5.65;;;;;;;15.66;66.81;101552.47;8288842;28;20123;-62
2023/05/30 06:53:17;;;;;;;21.27;5.53;;;;;;;15.76;66.98;101543.38;8310026;28;20037;-61
2023/05/30 06:57:17;;;;;;;24.13;5.70;;;;;;;15.87;65.84;101545.91;8320889;28;20041;-61
2023/05/30 07:01:18;;;;;;;19.67;5.30;;;;;;;15.84;66.58;101541.63;8320283;28;20064;-61
2023/05/30 07:05:18;;;;;;;15.77;5.47;;;;;;;16.00;66.38;101540.97;8286917;28;20046;-61
2023/05/30 07:09:18;;;;;;;20.05;5.03;;;;;;;16.40;65.14;101545.06;8267600;28;20045;-61
2023/05/30 07:13:19;;;;;;;15.43;5.57;;;;;;;16.65;64.50;101544.34;8285784;28;20037;-62
2023/05/30 07:17:19;;;;;;;19.77;6.13;;;;;;;16.53;65.37;101545.59;8287870;28;20588;-61
2023/05/30 07:21:20;;;;;;;18.48;6.25;;;;;;;16.30;64.05;101546.13;8295041;28;20052;-61
2023/05/30 07:25:20;;;;;;;28.15;6.78;;;;;;;16.49;64.39;101543.31;8314527;28;20084;-61
2023/05/30 07:29:21;;;;;;;26.27;7.15;;;;;;;16.68;64.82;101548.66;8285958;28;20047;-61
2023/05/30 07:33:21;;;;;;;21.75;6.40;;;;;;;16.71;64.25;101551.94;8283425;28;20416;-62
2023/05/30 07:37:22;;;;;;;25.00;8.23;;;;;;;16.78;64.46;101550.31;8280574;28;20129;-62
2023/05/30 07:41:22;;;;;;;21.25;8.35;;;;;;;16.72;63.97;101544.59;8290862;28;20046;-61
2023/05/30 07:45:23;;;;;;;24.40;7.55;;;;;;;16.93;64.20;101547.91;8293795;28;20053;-61
2023/05/30 07:49:23;;;;;;;22.75;7.45;;;;;;;16.99;63.54;101547.28;8292473;28;20068;-62
2023/05/30 07:53:23;;;;;;;23.65;7.50;;;;;;;17.25;63.33;101548.16;8314033;28;20613;-61
2023/05/30 07:57:24;;;;;;;23.08;8.35;;;;;;;17.42;62.51;101544.56;8324642;28;20465;-61
2023/05/30 08:01:26;;;;;;;22.55;6.88;;;;;;;17.44;60.94;101548.88;8323715;28;20134;-61
2023/05/30 08:05:27;;;;;;;21.80;9.27;;;;;;;17.52;61.78;101550.81;8324266;28;20040;-62
2023/05/30 08:09:27;;;;;;;28.40;9.48;;;;;;;17.67;62.68;101549.22;8311161;28;20524;-61
2023/05/30 08:13:28;;;;;;;24.30;8.73;;;;;;;17.76;61.07;101541.91;8291611;28;20049;-62
2023/05/30 08:17:29;;;;;;;18.48;8.98;;;;;;;18.07;61.50;101541.22;8289022;28;20563;-61
2023/05/30 08:21:31;;;;;;;23.58;8.48;;;;;;;18.17;60.71;101533.72;8298624;28;20519;-61
2023/05/30 08:25:35;;;;;;;20.05;8.43;;;;;;;18.17;60.37;101536.47;8296451;28;20068;-62
2023/05/30 08:29:35;;;;;;;20.65;10.13;;;;;;;18.17;60.38;101539.22;8290657;28;20120;-62
2023/05/30 08:33:36;;;;;;;17.42;9.57;;;;;;;18.08;60.37;101534.72;8276075;28;20042;-62
2023/05/30 08:37:37;;;;;;;19.38;8.95;;;;;;;18.18;59.79;101532.72;8273031;28;20400;-61
2023/05/30 08:41:37;;;;;;;24.50;8.90;;;;;;;18.32;59.50;101529.34;8287107;28;20466;-62
2023/05/30 08:45:38;;;;;;;24.80;8.80;;;;;;;18.50;60.13;101526.53;8298795;28;20045;-62
2023/05/30 08:49:42;;;;;;;19.08;8.60;;;;;;;18.67;59.75;101526.38;8269343;28;20041;-62
2023/05/30 08:53:47;;;;;;;20.10;8.32;;;;;;;18.85;58.62;101532.59;8315875;28;20053;-62
2023/05/30 08:57:55;;;;;;;19.20;8.93;;;;;;;19.09;58.45;101529.03;8321679;28;20068;-61
2023/05/30 09:01:57;;;;;;;23.65;8.45;;;;;;;19.08;58.07;101511.72;8320197;28;20799;-62
2023/05/30 09:06:00;;;;;;;23.83;8.57;;;;;;;19.28;57.84;101510.34;8321139;28;20446;-62
2023/05/30 09:10:02;;;;;;;22.70;8.07;;;;;;;19.24;57.67;101511.72;8293585;28;20045;-62
2023/05/30 09:14:03;;;;;;;22.80;8.13;;;;;;;19.00;57.61;101513.59;8287993;28;20097;-61
2023/05/30 09:18:04;;;;;;;23.45;8.07;;;;;;;19.12;57.98;101513.06;8288402;28;20042;-62
2023/05/30 09:22:06;;;;;;;27.83;7.85;;;;;;;19.36;57.14;101515.84;8299424;28;20125;-62
2023/05/30 09:26:10;;;;;;;20.40;6.90;;;;;;;19.48;57.50;101519.94;8275480;28;20045;-62
2023/05/30 09:30:11;;;;;;;18.00;7.73;;;;;;;19.32;56.99;101509.00;8322544;28;20091;-59
2023/05/30 09:34:19;;;;;;;17.02;7.45;;;;;;;19.58;57.26;101511.53;8320192;28;20037;-59
2023/05/30 09:38:21;;;;;;;17.38;6.72;;;;;;;19.69;57.45;101504.81;8320344;28;20404;-59
2023/05/30 09:42:22;;;;;;;19.63;6.97;;;;;;;20.16;56.11;101513.97;8302484;28;20046;-59
2023/05/30 09:46:25;;;;;;;22.80;7.15;;;;;;;20.29;55.33;101497.75;8295739;28;20121;-59
2023/05/30 09:50:26;;;;;;;17.25;5.78;;;;;;;20.57;55.06;101507.19;8256816;28;20048;-59
2023/05/30 09:54:27;;;;;;;21.88;6.82;;;;;;;20.98;52.75;101494.94;8341580;28;20041;-59
2023/05/30 09:58:27;;;;;;;16.73;6.85;;;;;;;21.45;53.67;101484.53;8318719;28;20106;-58
2023/05/30 10:02:28;;;;;;;19.38;6.30;;;;;;;22.81;51.98;101488.31;8318129;28;20046;-59
2023/05/30 10:06:29;;;;;;;16.40;7.00;;;;;;;23.90;48.54;101498.78;8296821;28;20405;-61
2023/05/30 10:10:29;;;;;;;16.52;6.53;;;;;;;23.91;48.42;101492.22;8295397;28;20046;-61
2023/05/30 10:14:30;;;;;;;21.58;6.78;;;;;;;24.24;47.94;101493.28;8286977;28;20038;-61
2023/05/30 10:18:33;;;;;;;18.95;7.57;;;;;;;23.70;47.80;101489.53;8287789;28;20045;-61
2023/05/30 10:22:41;;;;;;;14.95;6.72;;;;;;;25.69;45.67;101485.91;8277736;28;20096;-61
2023/05/30 10:27:01;;;;;;;16.60;6.60;;;;;;;25.69;45.51;101490.59;8283368;28;20117;-61
2023/05/30 10:31:03;;;;;;;16.38;7.55;;;;;;;25.56;44.77;101488.72;8286213;28;20102;-61
2023/05/30 10:35:15;;;;;;;16.50;6.90;;;;;;;25.74;45.45;101485.25;8286659;28;20042;-61
2023/05/30 10:39:28;;;;;;;15.32;6.38;;;;;;;26.24;45.49;101496.47;8285633;28;20041;-61
2023/05/30 10:47:55;;;;;;;18.52;7.40;;;;;;;26.18;43.92;101485.38;8373092;27;20119;-60
2023/05/30 10:52:02;;;;;;;16.58;7.25;;;;;;;26.18;43.23;101479.84;8377351;28;20501;-60
2023/05/30 11:00:38;;;;;;;10.80;6.80;;;;;;;25.56;43.36;101463.78;8342580;27;21185;-60
2023/05/30 11:04:42;;;;;;;17.08;7.28;;;;;;;25.82;43.93;101468.38;8348285;28;20033;-60
2023/05/30 11:08:43;;;;;;;16.55;6.45;;;;;;;25.98;43.32;101463.25;8347325;28;20056;-60
2023/05/30 11:12:44;;;;;;;13.48;6.97;;;;;;;26.16;42.33;101446.78;8346312;28;20057;-61
2023/05/30 11:16:49;;;;;;;14.75;6.70;;;;;;;26.02;43.38;101453.47;8344249;28;20045;-61
2023/05/30 11:20:52;;;;;;;18.88;7.15;;;;;;;26.29;42.08;101448.66;8344577;28;20041;-61
2023/05/30 11:25:17;;;;;;;17.67;6.97;;;;;;;26.32;42.51;101431.56;8345078;28;20069;-61
2023/05/30 11:33:53;;;;;;;20.60;6.70;;;;;;;26.46;41.98;101436.81;8346612;27;20410;-61
2023/05/30 11:37:56;;;;;;;11.32;6.05;;;;;;;26.37;41.84;101417.88;8346809;28;20045;-61
2023/05/30 11:41:57;;;;;;;15.70;6.60;;;;;;;26.31;40.82;101416.84;8345519;28;20061;-61
2023/05/30 11:45:59;;;;;;;13.05;6.25;;;;;;;26.67;41.25;101413.47;8344718;28;20045;-62
2023/05/30 11:49:59;;;;;;;13.27;6.90;;;;;;;26.71;41.25;101410.00;8344657;28;20041;-61
2023/05/30 11:54:01;;;;;;;15.23;6.57;;;;;;;26.16;40.91;101405.19;8343759;28;20041;-61
2023/05/30 11:58:02;;;;;;;11.32;5.63;;;;;;;26.17;40.78;101412.44;8346163;28;20479;-61
2023/05/30 12:02:03;;;;;;;13.60;5.90;;;;;;;26.22;40.72;101404.31;8346020;28;20051;-61
2023/05/30 12:06:12;;;;;;;13.18;5.22;;;;;;;25.00;42.08;101401.56;8347557;28;20043;-61
2023/05/30 12:10:13;;;;;;;9.10;4.15;;;;;;;23.20;43.58;101400.38;8343562;28;20033;-61
2023/05/30 12:14:14;;;;;;;8.80;4.88;;;;;;;22.36;44.62;101399.56;8330055;28;20551;-62
2023/05/30 12:18:16;;;;;;;16.00;6.00;;;;;;;21.97;45.37;101397.22;8311941;28;20045;-61
2023/05/30 12:22:17;;;;;;;12.38;5.45;;;;;;;21.78;45.43;101395.06;8351856;28;20345;-61
2023/05/30 12:26:18;;;;;;;15.43;5.63;;;;;;;21.86;46.03;101386.66;8356608;28;20033;-61
2023/05/30 12:30:19;;;;;;;16.02;5.10;;;;;;;21.98;45.71;101387.03;8343821;28;20044;-61
2023/05/30 12:34:20;;;;;;;12.48;4.30;;;;;;;22.29;47.29;101382.13;8343300;28;20046;-61
2023/05/30 12:38:21;;;;;;;14.88;6.53;;;;;;;22.23;45.61;101388.41;8345205;28;20041;-58
2023/05/30 12:42:25;;;;;;;11.40;4.60;;;;;;;21.90;46.24;101377.00;8333973;28;20049;-58
2023/05/30 12:46:27;;;;;;;10.90;5.10;;;;;;;21.76;47.11;101380.63;8289663;28;20658;-58
2023/05/30 12:50:28;;;;;;;10.88;4.55;;;;;;;22.01;48.43;101373.72;8290297;28;20054;-58
2023/05/30 12:54:29;;;;;;;6.63;3.88;;;;;;;21.97;46.98;101380.69;8320675;28;20046;-58
2023/05/30 12:58:29;;;;;;;9.75;4.93;;;;;;;22.10;46.75;101378.06;8302287;28;20452;-58
2023/05/30 13:02:30;;;;;;;10.57;4.55;;;;;;;21.93;46.90;101368.34;8293910;28;20397;-58
2023/05/30 13:06:31;;;;;;;9.82;4.95;;;;;;;21.97;46.97;101358.66;8300973;28;20048;-58
2023/05/30 13:10:32;;;;;;;12.80;5.22;;;;;;;22.18;47.71;101353.19;8309503;28;20513;-58
2023/05/30 13:14:33;;;;;;;13.43;4.93;;;;;;;22.05;45.92;101368.69;8298914;28;20048;-58
2023/05/30 13:18:35;;;;;;;11.30;5.07;;;;;;;22.03;47.02;101357.88;8297893;28;20033;-58
2023/05/30 13:22:35;;;;;;;10.38;4.75;;;;;;;22.13;46.83;101355.66;8294106;28;20029;-58
2023/05/30 13:26:35;;;;;;;13.90;4.72;;;;;;;22.14;46.92;101356.50;8321265;28;20113;-58
2023/05/30 13:30:36;;;;;;;16.55;5.00;;;;;;;22.41;46.86;101340.03;8315143;28;20038;-58
2023/05/30 13:34:36;;;;;;;12.07;4.00;;;;;;;22.64;46.85;101348.13;8298504;28;20101;-58
2023/05/30 13:38:39;;;;;;;14.85;4.90;;;;;;;22.46;46.53;101337.56;8302114;28;20582;-58
2023/05/30 13:42:40;;;;;;;12.10;4.45;;;;;;;22.55;46.80;101333.66;8300059;28;20068;-59
2023/05/30 13:46:40;;;;;;;14.05;5.68;;;;;;;22.29;46.97;101338.84;8302360;28;20034;-58
2023/05/30 13:50:42;;;;;;;12.07;5.25;;;;;;;22.21;47.88;101319.72;8299900;28;20048;-59
2023/05/30 13:54:43;;;;;;;12.75;5.03;;;;;;;22.21;47.14;101318.84;8298275;28;20073;-60
2023/05/30 13:58:43;;;;;;;16.58;4.65;;;;;;;22.04;47.37;101301.72;8298260;28;20061;-60
2023/05/30 14:02:44;;;;;;;17.23;4.93;;;;;;;22.32;46.70;101321.09;8302777;28;20329;-60
2023/05/30 14:06:46;;;;;;;12.45;5.47;;;;;;;22.26;47.51;101310.88;8317152;28;20275;-61
2023/05/30 14:10:47;;;;;;;10.07;4.80;;;;;;;22.37;47.54;101305.66;8309592;28;20029;-60
2023/05/30 14:14:48;;;;;;;10.98;4.60;;;;;;;22.49;47.21;101315.13;8301068;28;20033;-61
2023/05/30 14:18:49;;;;;;;10.68;4.60;;;;;;;22.30;47.34;101302.00;8297270;28;20407;-60
2023/05/30 14:22:49;;;;;;;14.55;4.03;;;;;;;22.48;48.76;101293.25;8295746;28;20425;-60
2023/05/30 14:26:50;;;;;;;13.30;4.63;;;;;;;22.65;49.41;101295.56;8294248;28;20061;-61
2023/05/30 14:30:50;;;;;;;13.13;4.25;;;;;;;22.98;50.14;101291.16;8304426;28;20038;-61
2023/05/30 14:34:51;;;;;;;11.95;5.22;;;;;;;22.97;48.52;101281.13;8296736;28;20588;-61
2023/05/30 14:38:51;;;;;;;9.18;5.22;;;;;;;22.74;49.13;101294.34;8302687;28;20045;-61
2023/05/30 14:42:51;;;;;;;12.55;5.03;;;;;;;22.75;49.23;101296.06;8296452;28;20041;-61
2023/05/30 14:46:52;;;;;;;13.07;5.32;;;;;;;22.71;49.76;101278.22;8307067;28;20041;-61
2023/05/30 14:50:53;;;;;;;15.52;4.82;;;;;;;22.91;50.30;101289.38;8297471;28;20120;-60
2023/05/30 14:54:53;;;;;;;8.20;4.07;;;;;;;23.02;50.13;101277.78;8329308;28;20088;-61
2023/05/30 14:58:54;;;;;;;13.75;5.18;;;;;;;22.84;49.90;101283.81;8314374;28;20296;-61
2023/05/30 15:02:55;;;;;;;8.18;4.05;;;;;;;22.82;51.01;101277.66;8308877;28;20038;-61
2023/05/30 15:06:55;;;;;;;11.88;5.05;;;;;;;23.05;50.33;101286.50;8300660;28;20033;-61
2023/05/30 15:10:56;;;;;;;7.25;4.70;;;;;;;22.84;50.75;101283.81;8303011;28;20033;-61
2023/05/30 15:14:56;;;;;;;10.03;4.97;;;;;;;23.02;51.45;101281.41;8307694;28;20360;-60
2023/05/30 15:18:57;;;;;;;15.25;5.50;;;;;;;22.94;50.06;101276.03;8303015;28;20280;-61
2023/05/30 15:22:57;;;;;;;11.02;4.88;;;;;;;22.99;50.29;101270.78;8309343;28;20045;-61
2023/05/30 15:26:58;;;;;;;12.95;5.05;;;;;;;22.98;50.69;101270.97;8307197;28;20045;-61
2023/05/30 15:30:58;;;;;;;14.05;5.97;;;;;;;22.85;50.52;101268.13;8314264;28;20065;-61
2023/05/30 15:34:58;;;;;;;13.48;4.47;;;;;;;23.01;51.85;101263.16;8316913;28;20087;-61
2023/05/30 15:38:59;;;;;;;12.43;5.43;;;;;;;23.09;51.50;101253.84;8291719;28;20079;-61
2023/05/30 15:42:59;;;;;;;10.90;4.75;;;;;;;22.89;50.56;101262.00;8278814;28;20041;-61
2023/05/30 15:47:00;;;;;;;14.73;5.05;;;;;;;22.94;51.53;101262.22;8285761;28;20076;-61
2023/05/30 15:51:02;;;;;;;13.15;5.57;;;;;;;22.89;50.95;101255.63;8312472;28;20271;-61
2023/05/30 15:55:03;;;;;;;12.48;5.78;;;;;;;22.98;51.29;101258.03;8332598;28;20041;-61
2023/05/30 15:59:03;;;;;;;14.60;5.75;;;;;;;22.76;51.49;101253.66;8318865;28;20511;-61
2023/05/30 16:03:04;;;;;;;12.10;5.68;;;;;;;22.86;52.17;101251.38;8316654;28;20512;-61
2023/05/30 16:07:05;;;;;;;13.95;5.32;;;;;;;22.96;51.91;101249.09;8316149;28;20072;-61
2023/05/30 16:11:05;;;;;;;14.15;4.82;;;;;;;22.94;52.53;101251.19;8310414;28;20049;-61
2023/05/30 16:15:07;;;;;;;12.50;4.30;;;;;;;23.11;52.17;101240.69;8294593;28;20128;-61
2023/05/30 16:19:07;;;;;;;14.07;4.75;;;;;;;22.88;52.05;101252.00;8287939;28;20311;-61
2023/05/30 16:23:08;;;;;;;11.02;4.82;;;;;;;22.78;52.50;101229.47;8298883;28;20044;-58
2023/05/30 16:27:08;;;;;;;11.15;4.60;;;;;;;22.81;52.47;101233.75;8299330;28;20123;-58
2023/05/30 16:31:09;;;;;;;13.98;4.65;;;;;;;22.71;52.78;101234.09;8320521;28;20045;-58
2023/05/30 16:35:09;;;;;;;17.23;5.72;;;;;;;22.72;53.06;101241.31;8321007;28;20057;-58
2023/05/30 16:39:11;;;;;;;8.13;4.82;;;;;;;22.71;52.89;101225.81;8314814;28;20398;-58
2023/05/30 16:43:12;;;;;;;10.80;4.55;;;;;;;22.68;52.63;101244.66;8321292;28;20141;-58
2023/05/30 16:47:13;;;;;;;11.40;4.82;;;;;;;22.70;53.06;101232.41;8314451;28;20037;-60
2023/05/30 16:51:13;;;;;;;8.02;4.72;;;;;;;22.76;53.17;101226.09;8301844;28;20131;-60
2023/05/30 16:55:14;;;;;;;10.85;4.43;;;;;;;22.88;53.37;101229.94;8301622;28;20408;-60
2023/05/30 16:59:14;;;;;;;9.90;4.45;;;;;;;22.65;53.01;101234.91;8303520;28;20149;-60
2023/05/30 17:03:14;;;;;;;11.90;4.75;;;;;;;22.66;53.58;101235.75;8319961;28;20095;-61
2023/05/30 17:07:15;;;;;;;10.05;4.55;;;;;;;22.76;53.96;101228.84;8315021;28;20120;-61
2023/05/30 17:11:15;;;;;;;12.55;4.55;;;;;;;22.75;53.31;101235.38;8320162;28;20045;-61
2023/05/30 17:15:16;;;;;;;11.30;4.40;;;;;;;22.60;53.69;101239.31;8321702;28;20042;-61
2023/05/30 17:19:16;;;;;;;10.00;4.22;;;;;;;22.57;53.80;101232.28;8320689;28;20042;-61
2023/05/30 17:23:17;;;;;;;13.40;4.70;;;;;;;22.59;53.50;101232.94;8318131;28;20353;-61
2023/05/30 17:27:17;;;;;;;8.70;4.15;;;;;;;22.54;54.06;101232.69;8318596;28;20075;-59
2023/05/30 17:31:18;;;;;;;10.73;4.50;;;;;;;22.44;54.32;101237.66;8318710;28;20091;-59
2023/05/30 17:35:18;;;;;;;14.23;4.63;;;;;;;22.40;54.23;101230.00;8319623;28;20052;-59
2023/05/30 17:39:19;;;;;;;10.55;4.35;;;;;;;22.45;54.61;101233.84;8319708;28;20288;-59
2023/05/30 17:43:20;;;;;;;9.88;4.38;;;;;;;22.35;54.73;101233.34;8319108;28;20041;-59
2023/05/30 17:47:21;;;;;;;9.77;4.25;;;;;;;22.39;55.50;101245.72;8319389;28;20608;-59
2023/05/30 17:51:21;;;;;;;10.15;4.32;;;;;;;22.30;55.53;101243.28;8318499;28;20470;-59
2023/05/30 17:55:22;;;;;;;13.65;4.43;;;;;;;22.26;55.67;101242.81;8318766;28;20292;-58
2023/05/30 17:59:22;;;;;;;11.75;4.40;;;;;;;22.30;55.68;101246.03;8318851;28;20053;-58
2023/05/30 18:03:23;;;;;;;12.05;4.75;;;;;;;22.24;55.64;101253.19;8318490;28;20088;-58
2023/05/30 18:07:23;;;;;;;13.10;4.05;;;;;;;22.17;55.39;101252.28;8318602;28;20034;-58
2023/05/30 18:11:23;;;;;;;9.70;4.15;;;;;;;22.18;56.29;101254.00;8318465;28;20050;-58
2023/05/30 18:15:24;;;;;;;16.90;4.32;;;;;;;22.06;56.28;101261.06;8316918;28;20041;-58
2023/05/30 18:19:26;;;;;;;13.10;4.38;;;;;;;22.07;56.54;101253.66;8318428;28;20099;-58
2023/05/30 18:23:27;;;;;;;11.38;4.00;;;;;;;22.03;56.86;101255.09;8318406;28;20428;-58
2023/05/30 18:27:27;;;;;;;9.57;3.80;;;;;;;21.97;57.23;101251.25;8318197;28;20092;-61
2023/05/30 18:31:28;;;;;;;5.97;3.40;;;;;;;21.93;57.16;101255.44;8317212;28;20044;-61
2023/05/30 18:35:28;;;;;;;8.25;3.60;;;;;;;21.71;57.66;101250.91;8323855;28;20045;-61
2023/05/30 18:39:29;;;;;;;13.38;4.68;;;;;;;21.65;57.87;101246.19;8317171;28;20053;-61
2023/05/30 18:43:29;;;;;;;10.20;4.35;;;;;;;21.57;58.71;101251.81;8317574;28;20411;-61
2023/05/30 18:47:31;;;;;;;7.50;3.78;;;;;;;21.42;58.83;101251.00;8318253;28;20053;-61